Time;durP1;ratioP1;P1;durP2;ratioP2;P2;SDS_P1;SDS_P2;PMS_P1;PMS_P2;Temp;Humidity;BMP_temperature;BMP_pressure;BME280_temperature;BME280_humidity;BME280_pressure;Samples;Min_cycle;Max_cycle;Signal;HPM_P1;HPM_P2
2022/04/15 00:02:26;;;;;;;3.95;1.40;;;6.30;99.20;;;;;;19803880;29;20153;-50
2022/04/15 00:12:29;;;;;;;2.03;0.95;;;6.40;98.30;;;;;;19803069;29;20047;-53
2022/04/15 00:22:32;;;;;;;3.80;1.20;;;6.30;98.30;;;;;;19874685;29;20112;-53
2022/04/15 00:32:35;;;;;;;3.47;0.80;;;6.30;97.80;;;;;;19832219;29;20035;-53
2022/04/15 00:42:38;;;;;;;2.53;0.85;;;6.30;97.10;;;;;;19840083;29;20477;-53
2022/04/15 00:52:44;;;;;;;1.92;0.60;;;6.30;96.90;;;;;;19800469;29;20100;-50
2022/04/15 01:02:46;;;;;;;2.17;0.80;;;6.40;96.40;;;;;;19830206;29;20138;-56
2022/04/15 01:12:53;;;;;;;1.67;0.90;;;6.40;96.40;;;;;;19818209;29;20066;-50
2022/04/15 01:23:07;;;;;;;3.67;1.08;;;6.40;96.60;;;;;;19851762;29;20051;-52
2022/04/15 01:33:18;;;;;;;1.63;0.82;;;6.30;96.50;;;;;;19841362;29;20403;-53
2022/04/15 01:43:20;;;;;;;3.70;1.67;;;6.10;98.10;;;;;;19813943;29;20411;-51
2022/04/15 01:53:22;;;;;;;5.40;1.85;;;6.00;98.70;;;;;;19837531;29;20042;-52
2022/04/15 02:03:25;;;;;;;5.38;2.00;;;6.00;99.20;;;;;;19856514;29;20982;-53
2022/04/15 02:13:28;;;;;;;6.10;2.15;;;6.00;99.00;;;;;;19849158;29;20119;-55
2022/04/15 02:23:30;;;;;;;10.38;4.30;;;5.90;99.70;;;;;;19813901;29;20128;-55
2022/04/15 02:33:33;;;;;;;9.15;4.45;;;5.80;99.90;;;;;;19806219;29;20496;-52
2022/04/15 02:43:38;;;;;;;19.58;5.43;;;5.90;99.90;;;;;;19855531;29;20051;-49
2022/04/15 02:53:40;;;;;;;10.90;5.13;;;5.80;99.90;;;;;;19824017;29;20047;-49
2022/04/15 03:03:43;;;;;;;11.90;5.55;;;5.80;99.90;;;;;;19832156;29;20062;-49
2022/04/15 03:13:46;;;;;;;13.55;4.72;;;5.90;99.90;;;;;;19862852;29;20138;-50
2022/04/15 03:23:48;;;;;;;9.80;4.38;;;6.00;99.90;;;;;;19807701;29;20132;-50
2022/04/15 03:33:51;;;;;;;13.48;5.22;;;5.80;99.90;;;;;;19806959;29;20744;-50
2022/04/15 03:43:53;;;;;;;11.38;5.25;;;5.60;99.90;;;;;;19810803;29;20095;-50
2022/04/15 03:53:56;;;;;;;9.55;4.65;;;5.90;99.90;;;;;;19818084;29;20035;-57
2022/04/15 04:03:59;;;;;;;9.25;4.50;;;5.70;99.90;;;;;;19812374;29;20043;-58
2022/04/15 04:14:01;;;;;;;10.85;4.22;;;5.80;99.90;;;;;;19859913;29;20042;-55
2022/04/15 04:24:05;;;;;;;9.48;4.57;;;5.70;99.90;;;;;;19850796;29;20148;-58
2022/04/15 04:34:07;;;;;;;10.82;4.70;;;5.60;99.90;;;;;;19838688;29;20039;-58
2022/04/15 04:44:10;;;;;;;12.68;5.07;;;5.80;99.90;;;;;;19862592;29;20418;-50
2022/04/15 04:54:13;;;;;;;10.75;5.28;;;5.70;99.90;;;;;;19859418;29;20051;-52
2022/04/15 05:04:15;;;;;;;12.45;4.47;;;5.80;99.90;;;;;;19857359;29;20047;-50
2022/04/15 05:14:19;;;;;;;10.85;5.28;;;6.00;99.90;;;;;;19841142;29;20077;-52
2022/04/15 05:24:22;;;;;;;12.93;5.22;;;6.20;99.90;;;;;;19811649;29;20066;-53
2022/04/15 05:34:25;;;;;;;11.60;5.57;;;6.30;99.90;;;;;;19873399;29;20092;-53
2022/04/15 05:44:27;;;;;;;15.32;5.60;;;6.50;99.90;;;;;;19824176;29;20066;-54
2022/04/15 05:54:30;;;;;;;15.45;6.15;;;6.80;99.90;;;;;;19847342;29;20043;-58
2022/04/15 06:04:32;;;;;;;14.48;5.78;;;7.10;99.90;;;;;;19801587;29;20128;-54
2022/04/15 06:14:36;;;;;;;10.73;6.13;;;7.40;99.90;;;;;;19813316;29;20161;-51
2022/04/15 06:24:39;;;;;;;14.23;5.78;;;7.80;99.90;;;;;;19841223;29;20115;-54
2022/04/15 06:34:42;;;;;;;11.65;5.07;;;8.20;99.90;;;;;;19862410;29;20519;-53
2022/04/15 06:44:44;;;;;;;12.70;5.38;;;9.40;99.90;;;;;;19856162;29;20101;-54
2022/04/15 06:54:47;;;;;;;14.55;6.50;;;11.70;99.90;;;;;;19810033;29;20099;-55
2022/04/15 07:04:50;;;;;;;11.95;5.03;;;13.20;98.30;;;;;;19816497;29;20047;-56
2022/04/15 07:14:52;;;;;;;9.65;4.93;;;14.00;95.40;;;;;;19803417;29;20100;-56
2022/04/15 07:24:56;;;;;;;10.32;4.88;;;14.80;94.80;;;;;;19858223;29;20084;-56
2022/04/15 07:35:00;;;;;;;10.23;5.00;;;16.00;93.00;;;;;;19881170;29;20042;-56
2022/04/15 07:45:05;;;;;;;11.00;4.97;;;16.80;92.40;;;;;;19838031;29;20067;-56
2022/04/15 07:55:08;;;;;;;9.02;4.97;;;17.20;90.40;;;;;;19812326;29;20511;-56
2022/04/15 08:05:11;;;;;;;9.00;5.00;;;17.50;91.20;;;;;;19852740;29;20074;-56
2022/04/15 08:15:13;;;;;;;8.77;4.45;;;17.60;90.60;;;;;;19845407;29;20076;-56
2022/04/15 08:25:17;;;;;;;9.18;4.95;;;17.90;91.20;;;;;;19823656;29;20130;-57
2022/04/15 08:35:20;;;;;;;9.73;4.57;;;18.40;91.00;;;;;;19838716;29;20070;-57
2022/04/15 08:45:26;;;;;;;12.32;4.70;;;18.90;86.10;;;;;;19880266;29;20055;-57
2022/04/15 08:55:30;;;;;;;10.10;4.30;;;18.90;85.40;;;;;;19808665;29;20055;-57
2022/04/15 09:05:33;;;;;;;10.65;4.55;;;18.90;90.30;;;;;;19800228;29;20075;-57
2022/04/15 09:15:36;;;;;;;10.15;4.35;;;19.20;88.60;;;;;;19800461;29;20337;-55
2022/04/15 09:25:39;;;;;;;9.00;4.65;;;19.40;87.20;;;;;;19798960;29;20051;-56
2022/04/15 09:35:49;;;;;;;6.95;4.63;;;19.30;86.70;;;;;;19840087;29;20494;-58
2022/04/15 09:45:52;;;;;;;10.95;4.57;;;19.50;85.60;;;;;;19864740;29;20063;-57
2022/04/15 09:55:55;;;;;;;9.50;5.03;;;19.60;86.10;;;;;;19867965;29;20082;-57
2022/04/15 10:05:58;;;;;;;9.07;4.28;;;19.90;88.30;;;;;;19843635;29;20513;-58
2022/04/15 10:16:02;;;;;;;11.27;5.60;;;20.00;89.40;;;;;;19796964;29;20035;-58
2022/04/15 10:26:06;;;;;;;10.82;5.50;;;19.90;86.70;;;;;;19811818;29;20047;-57
2022/04/15 10:36:15;;;;;;;12.23;6.40;;;20.00;86.30;;;;;;19796557;29;20450;-58
2022/04/15 10:46:19;;;;;;;12.35;6.43;;;20.00;87.30;;;;;;19837696;29;20077;-58
2022/04/15 10:56:24;;;;;;;17.08;8.70;;;20.00;90.00;;;;;;19839292;29;20123;-56
2022/04/15 11:06:28;;;;;;;16.05;8.25;;;19.80;83.00;;;;;;19814069;29;20517;-57
2022/04/15 11:16:48;;;;;;;15.48;8.85;;;19.60;87.60;;;;;;19807618;29;20458;-54
2022/04/15 11:27:03;;;;;;;18.38;8.27;;;20.00;89.50;;;;;;19807335;29;20066;-58
2022/04/15 11:37:07;;;;;;;18.17;10.10;;;20.00;89.40;;;;;;19806235;29;20119;-58
2022/04/15 11:47:19;;;;;;;18.90;9.13;;;20.30;91.30;;;;;;19805556;29;20132;-56
2022/04/15 11:57:21;;;;;;;19.10;10.82;;;20.40;85.80;;;;;;19804770;29;20059;-58
2022/04/15 12:07:25;;;;;;;17.98;9.50;;;20.40;89.70;;;;;;19845467;29;20111;-56
2022/04/15 12:17:28;;;;;;;20.67;9.90;;;20.50;89.80;;;;;;19804832;29;20112;-58
2022/04/15 12:27:35;;;;;;;21.45;10.57;;;20.60;86.60;;;;;;19823516;29;20395;-57
2022/04/15 12:37:43;;;;;;;22.35;10.30;;;20.70;90.10;;;;;;19877641;29;20134;-58
2022/04/15 12:48:02;;;;;;;26.92;15.85;;;20.80;87.00;;;;;;19834312;29;20078;-57
2022/04/15 12:58:18;;;;;;;;;;;20.50;81.00;;;;;;19875499;29;20132;-57
2022/04/15 13:08:23;;;;;;;27.80;12.90;;;20.30;87.20;;;;;;19875692;29;20342;-58
2022/04/15 13:18:25;;;;;;;24.33;11.77;;;20.50;88.00;;;;;;19819153;29;20073;-58
2022/04/15 13:28:28;;;;;;;20.70;11.98;;;20.30;86.70;;;;;;19798899;29;20066;-58
2022/04/15 13:38:33;;;;;;;25.00;14.20;;;20.30;83.60;;;;;;19798260;29;20047;-58
2022/04/15 13:48:35;;;;;;;27.17;13.35;;;20.50;85.20;;;;;;19797745;29;20043;-58
2022/04/15 13:58:38;;;;;;;25.30;13.50;;;20.30;87.00;;;;;;19797766;29;20131;-58
2022/04/15 14:08:41;;;;;;;26.08;13.55;;;20.40;85.30;;;;;;19848183;29;20051;-57
2022/04/15 14:18:44;;;;;;;24.20;14.18;;;20.50;83.30;;;;;;19871550;29;20068;-58
2022/04/15 14:28:47;;;;;;;24.73;13.65;;;20.50;83.80;;;;;;19820401;29;20572;-58
2022/04/15 14:38:50;;;;;;;25.63;13.32;;;20.00;86.20;;;;;;19880621;29;20051;-58
2022/04/15 14:48:55;;;;;;;22.77;13.88;;;19.90;84.30;;;;;;19807697;29;20051;-57
2022/04/15 14:58:57;;;;;;;26.85;14.93;;;19.70;85.00;;;;;;19813196;29;20540;-58
2022/04/15 15:09:00;;;;;;;24.27;14.90;;;19.10;85.30;;;;;;19808695;29;20043;-58
2022/04/15 15:19:03;;;;;;;22.48;13.30;;;18.70;85.60;;;;;;19845782;29;20507;-58
2022/04/15 15:39:28;;;;;;;25.90;13.27;;;17.50;88.10;;;;;;19824110;29;20068;-58
2022/04/15 15:49:32;;;;;;;24.77;12.77;;;16.90;88.80;;;;;;19872666;29;20108;-58
2022/04/15 15:59:34;;;;;;;24.75;12.35;;;16.40;88.20;;;;;;19807356;29;20083;-52
2022/04/15 16:09:39;;;;;;;27.75;12.15;;;16.00;89.90;;;;;;19803735;29;20460;-58
2022/04/15 16:19:41;;;;;;;21.60;11.43;;;15.60;91.40;;;;;;19803596;29;20035;-58
2022/04/15 16:29:45;;;;;;;27.95;12.63;;;15.00;91.80;;;;;;19855001;29;20038;-58
2022/04/15 16:39:48;;;;;;;22.35;11.90;;;14.50;92.90;;;;;;19849741;29;20432;-58
2022/04/15 16:49:51;;;;;;;26.50;12.35;;;13.90;93.30;;;;;;19817609;29;20424;-58
2022/04/15 16:59:53;;;;;;;21.00;10.60;;;13.50;93.60;;;;;;19868846;29;20054;-50
2022/04/15 17:09:56;;;;;;;20.45;10.30;;;13.50;93.80;;;;;;19841341;29;20043;-49
2022/04/15 17:19:58;;;;;;;24.90;11.70;;;13.80;95.10;;;;;;19800415;29;20316;-52
2022/04/15 17:30:02;;;;;;;20.90;10.63;;;13.70;93.40;;;;;;19798604;29;20092;-58
2022/04/15 17:40:06;;;;;;;22.50;10.43;;;13.50;94.30;;;;;;19834070;29;20047;-48
2022/04/15 17:50:08;;;;;;;20.92;10.95;;;13.20;94.70;;;;;;19853655;29;20402;-57
2022/04/15 18:00:11;;;;;;;20.33;10.85;;;12.80;96.00;;;;;;19801324;29;20059;-57
2022/04/15 18:10:14;;;;;;;24.52;11.88;;;12.20;97.20;;;;;;19812620;29;20112;-50
2022/04/15 18:20:17;;;;;;;23.92;12.10;;;11.60;98.50;;;;;;19811838;29;20039;-57
2022/04/15 18:30:19;;;;;;;22.05;11.30;;;11.30;99.30;;;;;;19811527;29;20097;-57
2022/04/15 18:40:24;;;;;;;22.50;12.48;;;11.00;99.90;;;;;;19811092;29;20047;-52
2022/04/15 19:00:48;;;;;;;21.85;11.82;;;10.80;99.90;;;;;;19809157;29;20129;-46
2022/04/15 19:10:55;;;;;;;32.35;16.48;;;10.70;99.90;;;;;;19798765;29;20082;-55
2022/04/15 19:21:00;;;;;;;31.05;16.52;;;10.70;99.90;;;;;;19783669;29;20070;-56
2022/04/15 19:31:03;;;;;;;38.05;18.80;;;10.10;99.90;;;;;;19813838;29;20128;-55
2022/04/15 19:41:08;;;;;;;31.08;15.80;;;9.50;99.90;;;;;;19787864;29;20077;-56
2022/04/15 19:51:12;;;;;;;36.20;17.30;;;9.10;99.90;;;;;;19861572;29;20082;-51
2022/04/15 20:01:16;;;;;;;32.40;16.67;;;8.80;99.90;;;;;;19848806;29;20477;-47
2022/04/15 20:11:19;;;;;;;31.30;15.43;;;9.20;99.90;;;;;;19872072;29;20035;-50
2022/04/15 20:21:25;;;;;;;28.02;14.85;;;9.60;99.90;;;;;;19862339;29;20595;-51
2022/04/15 20:31:28;;;;;;;29.20;14.45;;;9.80;99.90;;;;;;19828150;29;20054;-50
2022/04/15 20:41:35;;;;;;;20.15;11.82;;;9.90;99.90;;;;;;19903209;29;20571;-53
2022/04/15 20:51:39;;;;;;;27.27;14.38;;;9.90;99.90;;;;;;19906130;29;20073;-59
2022/04/15 21:01:42;;;;;;;21.77;11.13;;;9.70;99.90;;;;;;19922664;29;20074;-59
2022/04/15 21:11:45;;;;;;;18.95;11.05;;;9.90;99.90;;;;;;19858149;29;20078;-50
2022/04/15 21:21:48;;;;;;;26.15;11.70;;;9.80;99.90;;;;;;19850174;29;20151;-52
2022/04/15 21:31:52;;;;;;;23.50;10.68;;;9.70;99.90;;;;;;19831670;29;20106;-50
2022/04/15 21:41:58;;;;;;;22.08;10.80;;;9.70;99.90;;;;;;19798017;29;20098;-49
2022/04/15 22:02:22;;;;;;;18.92;11.65;;;9.50;99.90;;;;;;19818338;29;20079;-50
2022/04/15 22:12:24;;;;;;;18.48;10.18;;;9.50;99.90;;;;;;19872058;29;20464;-51
2022/04/15 22:22:27;;;;;;;17.55;9.88;;;9.60;99.90;;;;;;19797509;29;20548;-51
2022/04/15 22:32:30;;;;;;;15.18;9.57;;;9.60;99.90;;;;;;19850684;29;20043;-56
2022/04/15 22:42:33;;;;;;;25.63;13.40;;;9.60;99.90;;;;;;19845347;29;20148;-51
2022/04/15 22:52:37;;;;;;;22.02;12.30;;;9.50;99.90;;;;;;19808578;29;20043;-51
2022/04/15 23:02:48;;;;;;;21.63;11.98;;;9.60;99.90;;;;;;19848606;29;20084;-49
2022/04/15 23:12:50;;;;;;;18.30;9.38;;;9.60;99.90;;;;;;19871549;29;20043;-49
2022/04/15 23:22:53;;;;;;;16.77;9.50;;;9.60;99.90;;;;;;19843043;29;20399;-48
2022/04/15 23:32:56;;;;;;;15.40;7.40;;;9.60;99.90;;;;;;19806816;29;20096;-51
2022/04/15 23:42:59;;;;;;;12.95;6.68;;;9.70;99.90;;;;;;19819537;29;20072;-50
2022/04/15 23:53:02;;;;;;;14.07;5.53;;;9.70;99.90;;;;;;19880249;29;20042;-56
